Overton RPC :: 200-B

liberation: 2021-10-09  08:00     latitude: 33.575198     longitude: -86.664147 43 birds
# LOFT PRING MILES ARRIVAL SPEED ToWin
1 VALHALLA LOFTS IF21-VALH-0102 210.359 2021-10-09 12:51:43.497 1269.115 00:00:00
2 VALHALLA LOFTS IF21-VALH-0123 210.359 2021-10-09 12:51:43.606 1269.108 00:00:00
3 VALHALLA LOFTS IF21-VALH-0170 210.359 2021-10-09 12:51:45.847 1268.945 00:00:02
4 VALHALLA LOFTS IF21-VALH-0169 210.359 2021-10-09 12:51:46.216 1268.918 00:00:03
5 VALHALLA LOFTS IF21-E-1574 210.359 2021-10-09 12:52:03.945 1267.635 00:00:20
6 PHILBETTER LOFT IF21-VALH-0191 204.506 2021-10-09 12:56:47.797 1212.720 00:13:11
7 VALHALLA LOFTS IF21-VALH-0184 210.359 2021-10-09 13:11:44.562 1187.622 00:20:01
8 PHILBETTER LOFT IF21-E-1562 204.506 2021-10-09 13:29:06.154 1093.675 00:45:30
9 PHILBETTER LOFT IF21-E-1567 204.506 2021-10-09 13:36:46.897 1068.738 00:53:10
10 LET IT GO LOFT IF21-ORP-0409 217.162 2021-10-09 14:13:45.267 1022.611 01:12:36
11 LET IT GO LOFT IF21-ORP-0462 217.162 2021-10-09 14:13:49.022 1022.440 01:12:39
12 LET IT GO LOFT IF21-E-1401 217.162 2021-10-09 14:14:04.377 1021.740 01:12:55
13 VALHALLA LOFTS IF21-VALH-0116 210.359 2021-10-09 14:04:35.683 1015.464 01:12:52
14 PHILBETTER LOFT IF21-E-1559 204.506 2021-10-09 14:06:05.196 983.186 01:22:29
15 VALHALLA LOFTS IF21-VALH-0177 210.359 2021-10-09 14:30:35.264 947.886 01:38:52
16 VALHALLA LOFTS IF21-VALH-0183 210.359 2021-10-09 14:31:05.599 946.661 01:39:22
17 VALHALLA LOFTS IF21-E-1600 210.359 2021-10-09 14:31:15.541 946.260 01:39:32
18 VALHALLA LOFTS IF21-VALH-0145 210.359 2021-10-09 14:31:16.977 946.202 01:39:33
19 PHILBETTER LOFT IF21-E-1554 204.506 2021-10-09 14:31:24.752 919.570 01:47:48
20 HONEY FARM LOFT IF21-FOYS-5488 178.062 2021-10-09 13:45:33.642 906.900 01:38:38
21 HONEY FARM LOFT IF21-FOYS-5486 178.062 2021-10-09 13:45:58.680 905.806 01:39:03
22 VALHALLA LOFTS IF21-VALH-0130 210.359 2021-10-09 15:02:48.033 875.667 02:11:05
23 VALHALLA LOFTS IF21-VALH-0186 210.359 2021-10-09 15:17:59.354 845.301 02:26:16
24 MONTEJANO LOFT AU21-ARPU-8992 175.842 2021-10-09 14:08:23.800 840.079 02:04:32
25 HONEY FARM LOFT IF21-FOYS-5485 178.062 2021-10-09 14:13:29.475 839.080 02:06:33
26 PHILBETTER LOFT IF21-E-1560 204.506 2021-10-09 15:13:41.804 829.915 02:30:05
27 VALHALLA LOFTS IF21-E-1591 210.359 2021-10-09 15:46:04.779 794.355 02:54:21
28 VALHALLA LOFTS IF21-VALH-0192 210.359 2021-10-09 15:46:06.334 794.311 02:54:23
29 VALHALLA LOFTS IF21-VALH-0129 210.359 2021-10-09 16:27:12.250 729.948 03:35:29
30 VALHALLA LOFTS IF21-VALH-0105 210.359 2021-10-09 16:52:22.127 695.444 04:00:39
31 VALHALLA LOFTS IF21-VALH-0114 210.359 2021-10-09 17:01:54.455 683.203 04:10:11
HONEY FARM LOFT AU21-NASH-9544 0 0000-00-00 00:00:00.000 0.000 00:00:00
HONEY FARM LOFT IF21-FOYS-5468 0 0000-00-00 00:00:00.000 0.000 00:00:00
HONEY FARM LOFT IF21-FOYS-5483 0 0000-00-00 00:00:00.000 0.000 00:00:00
LET IT GO LOFT IF21-ORP-0482 0 0000-00-00 00:00:00.000 0.000 00:00:00
MONTEJANO LOFT IF21-E-1316 0 0000-00-00 00:00:00.000 0.000 00:00:00
MONTEJANO LOFT IF21-E-1465 0 0000-00-00 00:00:00.000 0.000 00:00:00
PHILBETTER LOFT AU21-ARPU-8973 0 0000-00-00 00:00:00.000 0.000 00:00:00
PHILBETTER LOFT IF21-E-1558 0 0000-00-00 00:00:00.000 0.000 00:00:00
VALHALLA LOFTS IF21-VALH-0104 0 0000-00-00 00:00:00.000 0.000 00:00:00
VALHALLA LOFTS IF21-VALH-0118 0 0000-00-00 00:00:00.000 0.000 00:00:00
VALHALLA LOFTS IF21-VALH-0196 0 0000-00-00 00:00:00.000 0.000 00:00:00
VALHALLA LOFTS IF21-VALH-0198 0 0000-00-00 00:00:00.000 0.000 00:00:00